sensor_id;sensor_type;location;lat;lon;timestamp;temperature;humidity
20481;DHT22;10399;50.754;3.366;2023-12-28T00:00:59;11.60;99.90
20481;DHT22;10399;50.754;3.366;2023-12-28T00:03:26;11.50;99.90
20481;DHT22;10399;50.754;3.366;2023-12-28T00:05:54;11.70;99.90
20481;DHT22;10399;50.754;3.366;2023-12-28T00:08:21;11.70;99.90
20481;DHT22;10399;50.754;3.366;2023-12-28T00:10:48;11.60;99.90
20481;DHT22;10399;50.754;3.366;2023-12-28T00:13:15;11.70;99.90
20481;DHT22;10399;50.754;3.366;2023-12-28T00:15:42;11.60;99.90
20481;DHT22;10399;50.754;3.366;2023-12-28T00:18:09;11.60;99.90
20481;DHT22;10399;50.754;3.366;2023-12-28T00:20:36;11.60;99.90
20481;DHT22;10399;50.754;3.366;2023-12-28T00:23:03;11.70;99.90
20481;DHT22;10399;50.754;3.366;2023-12-28T00:25:32;11.60;99.90
20481;DHT22;10399;50.754;3.366;2023-12-28T00:27:59;11.60;99.90
20481;DHT22;10399;50.754;3.366;2023-12-28T00:30:26;11.70;99.90
20481;DHT22;10399;50.754;3.366;2023-12-28T00:32:53;11.60;99.90
20481;DHT22;10399;50.754;3.366;2023-12-28T00:35:20;11.50;99.90
20481;DHT22;10399;50.754;3.366;2023-12-28T00:37:48;11.50;99.90
20481;DHT22;10399;50.754;3.366;2023-12-28T00:40:15;11.60;99.90
20481;DHT22;10399;50.754;3.366;2023-12-28T00:42:42;11.60;99.90
20481;DHT22;10399;50.754;3.366;2023-12-28T00:45:09;11.60;99.90
20481;DHT22;10399;50.754;3.366;2023-12-28T00:47:37;11.60;99.90
20481;DHT22;10399;50.754;3.366;2023-12-28T00:50:04;11.60;99.90
20481;DHT22;10399;50.754;3.366;2023-12-28T00:52:31;11.60;99.90
20481;DHT22;10399;50.754;3.366;2023-12-28T00:54:58;11.70;99.90
20481;DHT22;10399;50.754;3.366;2023-12-28T00:57:25;11.60;99.90
20481;DHT22;10399;50.754;3.366;2023-12-28T00:59:53;11.60;99.90
20481;DHT22;10399;50.754;3.366;2023-12-28T01:02:19;11.70;99.90
20481;DHT22;10399;50.754;3.366;2023-12-28T01:04:46;11.60;99.90
20481;DHT22;10399;50.754;3.366;2023-12-28T01:07:14;11.60;99.90
20481;DHT22;10399;50.754;3.366;2023-12-28T01:09:41;11.60;99.90
20481;DHT22;10399;50.754;3.366;2023-12-28T01:12:08;11.60;99.90
20481;DHT22;10399;50.754;3.366;2023-12-28T01:14:35;11.60;99.90
20481;DHT22;10399;50.754;3.366;2023-12-28T01:17:02;11.70;99.90
20481;DHT22;10399;50.754;3.366;2023-12-28T01:19:29;11.70;99.90
20481;DHT22;10399;50.754;3.366;2023-12-28T01:21:56;11.60;99.90
20481;DHT22;10399;50.754;3.366;2023-12-28T01:24:24;11.60;99.90
20481;DHT22;10399;50.754;3.366;2023-12-28T01:26:52;11.60;99.90
20481;DHT22;10399;50.754;3.366;2023-12-28T01:29:19;11.50;99.90
20481;DHT22;10399;50.754;3.366;2023-12-28T01:31:45;11.70;99.90
20481;DHT22;10399;50.754;3.366;2023-12-28T01:34:13;11.70;99.90
20481;DHT22;10399;50.754;3.366;2023-12-28T01:36:40;11.70;99.90
20481;DHT22;10399;50.754;3.366;2023-12-28T01:39:11;11.80;99.90
20481;DHT22;10399;50.754;3.366;2023-12-28T01:41:38;11.80;99.90
20481;DHT22;10399;50.754;3.366;2023-12-28T01:44:05;11.90;99.90
20481;DHT22;10399;50.754;3.366;2023-12-28T01:46:33;11.90;99.90
20481;DHT22;10399;50.754;3.366;2023-12-28T01:49:00;11.90;99.90
20481;DHT22;10399;50.754;3.366;2023-12-28T01:51:28;11.80;99.90
20481;DHT22;10399;50.754;3.366;2023-12-28T01:53:55;11.80;99.90
20481;DHT22;10399;50.754;3.366;2023-12-28T01:56:24;11.90;99.90
20481;DHT22;10399;50.754;3.366;2023-12-28T01:58:51;11.90;99.90
20481;DHT22;10399;50.754;3.366;2023-12-28T02:01:20;12.00;99.90
20481;DHT22;10399;50.754;3.366;2023-12-28T02:03:47;11.90;99.90
20481;DHT22;10399;50.754;3.366;2023-12-28T02:06:15;11.90;99.90
20481;DHT22;10399;50.754;3.366;2023-12-28T02:08:46;11.90;99.90
20481;DHT22;10399;50.754;3.366;2023-12-28T02:11:13;11.80;99.90
20481;DHT22;10399;50.754;3.366;2023-12-28T02:13:40;11.80;99.90
20481;DHT22;10399;50.754;3.366;2023-12-28T02:16:49;11.80;99.90
20481;DHT22;10399;50.754;3.366;2023-12-28T02:20:03;11.80;99.90
20481;DHT22;10399;50.754;3.366;2023-12-28T02:22:05;11.70;99.90
20481;DHT22;10399;50.754;3.366;2023-12-28T02:25:04;11.80;99.90
20481;DHT22;10399;50.754;3.366;2023-12-28T02:27:34;11.80;99.90
20481;DHT22;10399;50.754;3.366;2023-12-28T02:30:01;11.90;99.90
20481;DHT22;10399;50.754;3.366;2023-12-28T02:35:19;11.90;99.90
20481;DHT22;10399;50.754;3.366;2023-12-28T02:37:50;12.00;99.90
20481;DHT22;10399;50.754;3.366;2023-12-28T02:40:19;11.90;99.90
20481;DHT22;10399;50.754;3.366;2023-12-28T02:42:47;11.90;99.90
20481;DHT22;10399;50.754;3.366;2023-12-28T02:45:15;11.90;99.90
20481;DHT22;10399;50.754;3.366;2023-12-28T02:47:42;11.70;99.90
20481;DHT22;10399;50.754;3.366;2023-12-28T02:50:11;11.80;99.90
20481;DHT22;10399;50.754;3.366;2023-12-28T02:52:38;11.70;99.90
20481;DHT22;10399;50.754;3.366;2023-12-28T02:55:06;11.70;99.90
20481;DHT22;10399;50.754;3.366;2023-12-28T02:57:33;11.80;99.90
20481;DHT22;10399;50.754;3.366;2023-12-28T03:00:00;11.80;99.90
20481;DHT22;10399;50.754;3.366;2023-12-28T03:02:29;11.80;99.90
20481;DHT22;10399;50.754;3.366;2023-12-28T03:04:56;11.80;99.90
20481;DHT22;10399;50.754;3.366;2023-12-28T03:07:23;11.90;99.90
20481;DHT22;10399;50.754;3.366;2023-12-28T03:09:50;11.90;99.90
20481;DHT22;10399;50.754;3.366;2023-12-28T03:12:17;11.90;99.90
20481;DHT22;10399;50.754;3.366;2023-12-28T03:14:45;11.80;99.90
20481;DHT22;10399;50.754;3.366;2023-12-28T03:17:11;11.90;99.90
20481;DHT22;10399;50.754;3.366;2023-12-28T03:19:38;11.80;99.90
20481;DHT22;10399;50.754;3.366;2023-12-28T03:22:06;11.90;99.90
20481;DHT22;10399;50.754;3.366;2023-12-28T03:24:33;11.90;99.90
20481;DHT22;10399;50.754;3.366;2023-12-28T03:27:00;11.90;99.90
20481;DHT22;10399;50.754;3.366;2023-12-28T03:29:27;11.90;99.90
20481;DHT22;10399;50.754;3.366;2023-12-28T03:31:55;11.80;99.90
20481;DHT22;10399;50.754;3.366;2023-12-28T03:34:21;11.70;99.90
20481;DHT22;10399;50.754;3.366;2023-12-28T03:36:50;11.70;99.90
20481;DHT22;10399;50.754;3.366;2023-12-28T03:39:17;11.60;99.90
20481;DHT22;10399;50.754;3.366;2023-12-28T03:41:44;11.60;99.90
20481;DHT22;10399;50.754;3.366;2023-12-28T03:44:11;11.60;99.90
20481;DHT22;10399;50.754;3.366;2023-12-28T03:46:39;11.50;99.90
20481;DHT22;10399;50.754;3.366;2023-12-28T03:49:06;11.50;99.90
20481;DHT22;10399;50.754;3.366;2023-12-28T03:51:32;11.50;99.90
20481;DHT22;10399;50.754;3.366;2023-12-28T03:54:00;11.60;99.90
20481;DHT22;10399;50.754;3.366;2023-12-28T03:56:27;11.60;99.90
20481;DHT22;10399;50.754;3.366;2023-12-28T03:58:54;11.50;99.90
20481;DHT22;10399;50.754;3.366;2023-12-28T04:01:22;11.50;99.90
20481;DHT22;10399;50.754;3.366;2023-12-28T04:03:49;11.60;99.90
20481;DHT22;10399;50.754;3.366;2023-12-28T04:06:17;11.60;99.90
20481;DHT22;10399;50.754;3.366;2023-12-28T04:08:44;11.60;99.90
20481;DHT22;10399;50.754;3.366;2023-12-28T04:11:11;11.60;99.90
20481;DHT22;10399;50.754;3.366;2023-12-28T04:13:38;11.60;99.90
20481;DHT22;10399;50.754;3.366;2023-12-28T04:16:06;11.60;99.90
20481;DHT22;10399;50.754;3.366;2023-12-28T04:18:33;11.60;99.90
20481;DHT22;10399;50.754;3.366;2023-12-28T04:21:00;11.60;99.90
20481;DHT22;10399;50.754;3.366;2023-12-28T04:23:27;11.60;99.90
20481;DHT22;10399;50.754;3.366;2023-12-28T04:25:54;11.50;99.90
20481;DHT22;10399;50.754;3.366;2023-12-28T04:28:22;11.60;99.90
20481;DHT22;10399;50.754;3.366;2023-12-28T04:30:49;11.40;99.90
20481;DHT22;10399;50.754;3.366;2023-12-28T04:33:17;11.40;99.90
20481;DHT22;10399;50.754;3.366;2023-12-28T04:35:46;11.40;99.90
20481;DHT22;10399;50.754;3.366;2023-12-28T04:38:13;11.30;99.90
20481;DHT22;10399;50.754;3.366;2023-12-28T04:40:42;11.30;99.90
20481;DHT22;10399;50.754;3.366;2023-12-28T04:43:15;11.40;99.90
20481;DHT22;10399;50.754;3.366;2023-12-28T04:45:42;11.40;99.90
20481;DHT22;10399;50.754;3.366;2023-12-28T04:48:09;11.40;99.90
20481;DHT22;10399;50.754;3.366;2023-12-28T04:50:37;11.40;99.90
20481;DHT22;10399;50.754;3.366;2023-12-28T04:53:05;11.30;99.90
20481;DHT22;10399;50.754;3.366;2023-12-28T04:55:32;11.40;99.90
20481;DHT22;10399;50.754;3.366;2023-12-28T04:58:00;11.40;99.90
20481;DHT22;10399;50.754;3.366;2023-12-28T05:00:28;11.50;99.90
20481;DHT22;10399;50.754;3.366;2023-12-28T05:02:55;11.50;99.90
20481;DHT22;10399;50.754;3.366;2023-12-28T05:05:22;11.60;99.90
20481;DHT22;10399;50.754;3.366;2023-12-28T05:07:50;11.60;99.90
20481;DHT22;10399;50.754;3.366;2023-12-28T05:10:17;11.60;99.90
20481;DHT22;10399;50.754;3.366;2023-12-28T05:12:44;11.60;99.90
20481;DHT22;10399;50.754;3.366;2023-12-28T05:15:11;11.60;99.90
20481;DHT22;10399;50.754;3.366;2023-12-28T05:17:38;11.60;99.90
20481;DHT22;10399;50.754;3.366;2023-12-28T05:20:06;11.70;99.90
20481;DHT22;10399;50.754;3.366;2023-12-28T05:22:33;11.60;99.90
20481;DHT22;10399;50.754;3.366;2023-12-28T05:25:00;11.50;99.90
20481;DHT22;10399;50.754;3.366;2023-12-28T05:27:27;11.40;99.90
20481;DHT22;10399;50.754;3.366;2023-12-28T05:29:54;11.50;99.90
20481;DHT22;10399;50.754;3.366;2023-12-28T05:32:21;11.50;99.90
20481;DHT22;10399;50.754;3.366;2023-12-28T05:34:49;11.50;99.90
20481;DHT22;10399;50.754;3.366;2023-12-28T05:37:17;11.40;99.90
20481;DHT22;10399;50.754;3.366;2023-12-28T05:39:44;11.40;99.90
20481;DHT22;10399;50.754;3.366;2023-12-28T05:42:11;11.50;99.90
20481;DHT22;10399;50.754;3.366;2023-12-28T05:44:38;11.30;99.90
20481;DHT22;10399;50.754;3.366;2023-12-28T05:47:13;11.30;99.90
20481;DHT22;10399;50.754;3.366;2023-12-28T05:49:41;11.30;99.90
20481;DHT22;10399;50.754;3.366;2023-12-28T05:52:11;11.30;99.90
20481;DHT22;10399;50.754;3.366;2023-12-28T05:54:42;11.20;99.90
20481;DHT22;10399;50.754;3.366;2023-12-28T05:57:11;11.10;99.90
20481;DHT22;10399;50.754;3.366;2023-12-28T05:59:38;11.20;99.90
20481;DHT22;10399;50.754;3.366;2023-12-28T06:02:07;11.20;99.90
20481;DHT22;10399;50.754;3.366;2023-12-28T06:04:34;11.20;99.90
20481;DHT22;10399;50.754;3.366;2023-12-28T06:07:03;11.20;99.90
20481;DHT22;10399;50.754;3.366;2023-12-28T06:09:31;11.20;99.90
20481;DHT22;10399;50.754;3.366;2023-12-28T06:11:58;11.10;99.90
20481;DHT22;10399;50.754;3.366;2023-12-28T06:14:26;11.00;99.90
20481;DHT22;10399;50.754;3.366;2023-12-28T06:16:53;11.10;99.90
20481;DHT22;10399;50.754;3.366;2023-12-28T06:19:20;11.10;99.90
20481;DHT22;10399;50.754;3.366;2023-12-28T06:21:49;11.10;99.90
20481;DHT22;10399;50.754;3.366;2023-12-28T06:24:17;11.20;99.90
20481;DHT22;10399;50.754;3.366;2023-12-28T06:26:44;11.00;99.90
20481;DHT22;10399;50.754;3.366;2023-12-28T06:29:31;11.00;99.90
20481;DHT22;10399;50.754;3.366;2023-12-28T06:32:02;11.00;99.90
20481;DHT22;10399;50.754;3.366;2023-12-28T06:34:32;10.90;99.90
20481;DHT22;10399;50.754;3.366;2023-12-28T06:37:00;10.90;99.90
20481;DHT22;10399;50.754;3.366;2023-12-28T06:39:43;10.90;99.90
20481;DHT22;10399;50.754;3.366;2023-12-28T06:42:15;11.00;99.90
20481;DHT22;10399;50.754;3.366;2023-12-28T06:44:43;10.90;99.90
20481;DHT22;10399;50.754;3.366;2023-12-28T06:47:10;10.90;99.90
20481;DHT22;10399;50.754;3.366;2023-12-28T06:49:37;10.90;99.90
20481;DHT22;10399;50.754;3.366;2023-12-28T06:52:11;11.00;99.90
20481;DHT22;10399;50.754;3.366;2023-12-28T06:54:50;11.10;99.90
20481;DHT22;10399;50.754;3.366;2023-12-28T06:57:17;10.90;99.90
20481;DHT22;10399;50.754;3.366;2023-12-28T06:59:47;10.90;99.90
20481;DHT22;10399;50.754;3.366;2023-12-28T07:02:14;11.00;99.90
20481;DHT22;10399;50.754;3.366;2023-12-28T07:05:18;10.90;99.90
20481;DHT22;10399;50.754;3.366;2023-12-28T07:08:00;11.00;99.90
20481;DHT22;10399;50.754;3.366;2023-12-28T07:10:33;10.90;99.90
20481;DHT22;10399;50.754;3.366;2023-12-28T07:13:37;11.10;99.90
20481;DHT22;10399;50.754;3.366;2023-12-28T07:16:21;11.00;99.90
20481;DHT22;10399;50.754;3.366;2023-12-28T07:19:09;11.00;99.90
20481;DHT22;10399;50.754;3.366;2023-12-28T07:21:55;10.90;99.90
20481;DHT22;10399;50.754;3.366;2023-12-28T07:24:23;11.00;99.90
20481;DHT22;10399;50.754;3.366;2023-12-28T07:26:50;11.00;99.90
20481;DHT22;10399;50.754;3.366;2023-12-28T07:29:17;11.00;99.90
20481;DHT22;10399;50.754;3.366;2023-12-28T07:34:56;11.00;99.90
20481;DHT22;10399;50.754;3.366;2023-12-28T07:37:23;11.10;99.90
20481;DHT22;10399;50.754;3.366;2023-12-28T07:39:50;11.10;99.90
20481;DHT22;10399;50.754;3.366;2023-12-28T07:42:18;11.00;99.90
20481;DHT22;10399;50.754;3.366;2023-12-28T07:45:16;11.20;99.90
20481;DHT22;10399;50.754;3.366;2023-12-28T07:47:50;11.20;99.90
20481;DHT22;10399;50.754;3.366;2023-12-28T07:50:19;11.20;99.90
20481;DHT22;10399;50.754;3.366;2023-12-28T07:52:48;11.10;99.90
20481;DHT22;10399;50.754;3.366;2023-12-28T07:55:15;11.10;99.90
20481;DHT22;10399;50.754;3.366;2023-12-28T07:57:48;11.00;99.90
20481;DHT22;10399;50.754;3.366;2023-12-28T08:00:16;11.10;99.90
20481;DHT22;10399;50.754;3.366;2023-12-28T08:02:43;11.10;99.90
20481;DHT22;10399;50.754;3.366;2023-12-28T08:05:11;11.10;99.90
20481;DHT22;10399;50.754;3.366;2023-12-28T08:07:38;11.10;99.90
20481;DHT22;10399;50.754;3.366;2023-12-28T08:10:05;11.20;99.90
20481;DHT22;10399;50.754;3.366;2023-12-28T08:12:33;11.20;99.90
20481;DHT22;10399;50.754;3.366;2023-12-28T08:15:00;11.20;99.90
20481;DHT22;10399;50.754;3.366;2023-12-28T08:17:27;11.10;99.90
20481;DHT22;10399;50.754;3.366;2023-12-28T08:19:54;11.30;99.90
20481;DHT22;10399;50.754;3.366;2023-12-28T08:22:26;11.20;99.90
20481;DHT22;10399;50.754;3.366;2023-12-28T08:24:54;11.20;99.90
20481;DHT22;10399;50.754;3.366;2023-12-28T08:27:22;11.20;99.90
20481;DHT22;10399;50.754;3.366;2023-12-28T08:29:49;11.10;99.90
20481;DHT22;10399;50.754;3.366;2023-12-28T08:32:17;11.10;99.90
20481;DHT22;10399;50.754;3.366;2023-12-28T08:34:44;11.20;99.90
20481;DHT22;10399;50.754;3.366;2023-12-28T08:37:13;11.10;99.90
20481;DHT22;10399;50.754;3.366;2023-12-28T08:39:43;11.30;99.90
20481;DHT22;10399;50.754;3.366;2023-12-28T08:42:11;11.30;99.90
20481;DHT22;10399;50.754;3.366;2023-12-28T08:44:38;11.20;99.90
20481;DHT22;10399;50.754;3.366;2023-12-28T08:47:08;11.30;99.90
20481;DHT22;10399;50.754;3.366;2023-12-28T08:49:35;11.50;99.90
20481;DHT22;10399;50.754;3.366;2023-12-28T08:52:02;11.60;99.90
20481;DHT22;10399;50.754;3.366;2023-12-28T08:54:29;11.60;99.90
20481;DHT22;10399;50.754;3.366;2023-12-28T08:56:56;11.60;99.90
20481;DHT22;10399;50.754;3.366;2023-12-28T08:59:25;11.80;99.90
20481;DHT22;10399;50.754;3.366;2023-12-28T09:01:54;11.70;99.90
20481;DHT22;10399;50.754;3.366;2023-12-28T09:04:21;11.70;99.90
20481;DHT22;10399;50.754;3.366;2023-12-28T09:06:51;11.70;99.90
20481;DHT22;10399;50.754;3.366;2023-12-28T09:09:20;11.70;99.90
20481;DHT22;10399;50.754;3.366;2023-12-28T09:11:47;11.80;99.90
20481;DHT22;10399;50.754;3.366;2023-12-28T09:14:14;11.80;99.90
20481;DHT22;10399;50.754;3.366;2023-12-28T09:16:41;11.90;99.90
20481;DHT22;10399;50.754;3.366;2023-12-28T09:19:10;12.10;99.90
20481;DHT22;10399;50.754;3.366;2023-12-28T09:21:37;12.10;99.90
20481;DHT22;10399;50.754;3.366;2023-12-28T09:24:05;12.20;99.90
20481;DHT22;10399;50.754;3.366;2023-12-28T09:26:32;12.20;99.90
20481;DHT22;10399;50.754;3.366;2023-12-28T09:28:59;12.20;99.90
20481;DHT22;10399;50.754;3.366;2023-12-28T09:31:27;12.30;99.90
20481;DHT22;10399;50.754;3.366;2023-12-28T09:33:54;12.30;99.90
20481;DHT22;10399;50.754;3.366;2023-12-28T09:36:24;12.20;99.90
20481;DHT22;10399;50.754;3.366;2023-12-28T09:38:54;12.30;99.90
20481;DHT22;10399;50.754;3.366;2023-12-28T09:41:24;12.20;99.90
20481;DHT22;10399;50.754;3.366;2023-12-28T09:43:56;12.20;99.90
20481;DHT22;10399;50.754;3.366;2023-12-28T09:46:25;12.30;99.90
20481;DHT22;10399;50.754;3.366;2023-12-28T09:48:56;12.30;99.90
20481;DHT22;10399;50.754;3.366;2023-12-28T09:51:27;12.30;99.90
20481;DHT22;10399;50.754;3.366;2023-12-28T09:53:54;12.30;99.90
20481;DHT22;10399;50.754;3.366;2023-12-28T09:56:22;12.40;99.90
20481;DHT22;10399;50.754;3.366;2023-12-28T09:58:51;12.40;99.90
20481;DHT22;10399;50.754;3.366;2023-12-28T10:01:20;12.40;99.90
20481;DHT22;10399;50.754;3.366;2023-12-28T10:03:47;12.40;99.90
20481;DHT22;10399;50.754;3.366;2023-12-28T10:06:15;12.40;99.90
20481;DHT22;10399;50.754;3.366;2023-12-28T10:08:50;12.50;99.90
20481;DHT22;10399;50.754;3.366;2023-12-28T10:11:18;12.40;99.90
20481;DHT22;10399;50.754;3.366;2023-12-28T10:13:46;12.40;99.90
20481;DHT22;10399;50.754;3.366;2023-12-28T10:16:16;12.40;99.90
20481;DHT22;10399;50.754;3.366;2023-12-28T10:18:44;12.50;99.90
20481;DHT22;10399;50.754;3.366;2023-12-28T10:21:12;12.60;99.90
20481;DHT22;10399;50.754;3.366;2023-12-28T10:23:40;12.70;99.90
20481;DHT22;10399;50.754;3.366;2023-12-28T10:26:08;12.80;99.90
20481;DHT22;10399;50.754;3.366;2023-12-28T10:28:36;12.80;99.90
20481;DHT22;10399;50.754;3.366;2023-12-28T10:31:05;12.90;99.90
20481;DHT22;10399;50.754;3.366;2023-12-28T10:33:36;12.90;99.90
20481;DHT22;10399;50.754;3.366;2023-12-28T10:36:08;12.90;99.90
20481;DHT22;10399;50.754;3.366;2023-12-28T10:38:40;13.00;99.90
20481;DHT22;10399;50.754;3.366;2023-12-28T10:41:08;12.90;99.90
20481;DHT22;10399;50.754;3.366;2023-12-28T10:43:45;12.90;99.90
20481;DHT22;10399;50.754;3.366;2023-12-28T10:46:32;13.00;99.90
20481;DHT22;10399;50.754;3.366;2023-12-28T10:49:14;13.00;99.90
20481;DHT22;10399;50.754;3.366;2023-12-28T10:51:44;13.00;99.90
20481;DHT22;10399;50.754;3.366;2023-12-28T10:57:06;13.00;99.90
20481;DHT22;10399;50.754;3.366;2023-12-28T10:59:54;13.00;99.90
20481;DHT22;10399;50.754;3.366;2023-12-28T11:02:30;12.90;99.90
20481;DHT22;10399;50.754;3.366;2023-12-28T11:04:59;12.90;99.90
20481;DHT22;10399;50.754;3.366;2023-12-28T11:07:27;12.90;99.90
20481;DHT22;10399;50.754;3.366;2023-12-28T11:10:00;12.80;99.90
20481;DHT22;10399;50.754;3.366;2023-12-28T11:12:28;13.00;99.90
20481;DHT22;10399;50.754;3.366;2023-12-28T11:14:57;13.10;99.90
20481;DHT22;10399;50.754;3.366;2023-12-28T11:17:25;13.00;99.90
20481;DHT22;10399;50.754;3.366;2023-12-28T11:19:53;13.00;99.90
20481;DHT22;10399;50.754;3.366;2023-12-28T11:22:22;13.10;99.90
20481;DHT22;10399;50.754;3.366;2023-12-28T11:24:52;13.10;99.90
20481;DHT22;10399;50.754;3.366;2023-12-28T11:27:20;13.10;99.90
20481;DHT22;10399;50.754;3.366;2023-12-28T11:29:48;13.20;99.90
20481;DHT22;10399;50.754;3.366;2023-12-28T11:32:16;13.30;99.90
20481;DHT22;10399;50.754;3.366;2023-12-28T11:34:43;13.30;99.90
20481;DHT22;10399;50.754;3.366;2023-12-28T11:37:17;13.40;99.90
20481;DHT22;10399;50.754;3.366;2023-12-28T11:39:49;13.60;99.90
20481;DHT22;10399;50.754;3.366;2023-12-28T11:42:20;13.60;99.90
20481;DHT22;10399;50.754;3.366;2023-12-28T11:44:48;13.90;99.90
20481;DHT22;10399;50.754;3.366;2023-12-28T11:47:25;13.80;99.90
20481;DHT22;10399;50.754;3.366;2023-12-28T11:49:52;13.70;99.90
20481;DHT22;10399;50.754;3.366;2023-12-28T11:52:29;13.50;99.90
20481;DHT22;10399;50.754;3.366;2023-12-28T11:54:58;13.50;99.90
20481;DHT22;10399;50.754;3.366;2023-12-28T11:57:26;13.40;99.90
20481;DHT22;10399;50.754;3.366;2023-12-28T11:59:56;13.50;99.90
20481;DHT22;10399;50.754;3.366;2023-12-28T12:02:23;13.50;99.90
20481;DHT22;10399;50.754;3.366;2023-12-28T12:04:56;13.60;99.90
20481;DHT22;10399;50.754;3.366;2023-12-28T12:07:29;13.50;99.90
20481;DHT22;10399;50.754;3.366;2023-12-28T12:09:58;13.30;99.90
20481;DHT22;10399;50.754;3.366;2023-12-28T12:12:26;13.20;99.90
20481;DHT22;10399;50.754;3.366;2023-12-28T12:14:54;13.30;99.90
20481;DHT22;10399;50.754;3.366;2023-12-28T12:17:23;13.40;99.90
20481;DHT22;10399;50.754;3.366;2023-12-28T12:19:52;13.40;99.90
20481;DHT22;10399;50.754;3.366;2023-12-28T12:22:23;13.30;99.90
20481;DHT22;10399;50.754;3.366;2023-12-28T12:24:56;13.30;99.90
20481;DHT22;10399;50.754;3.366;2023-12-28T12:27:25;13.20;99.90
20481;DHT22;10399;50.754;3.366;2023-12-28T12:29:52;13.30;99.90
20481;DHT22;10399;50.754;3.366;2023-12-28T12:32:19;13.30;99.90
20481;DHT22;10399;50.754;3.366;2023-12-28T12:34:46;13.30;99.90
20481;DHT22;10399;50.754;3.366;2023-12-28T12:37:14;13.40;99.90
20481;DHT22;10399;50.754;3.366;2023-12-28T12:39:41;13.30;99.90
20481;DHT22;10399;50.754;3.366;2023-12-28T12:42:15;13.50;99.90
20481;DHT22;10399;50.754;3.366;2023-12-28T12:44:43;13.60;99.90
20481;DHT22;10399;50.754;3.366;2023-12-28T12:47:10;13.70;99.90
20481;DHT22;10399;50.754;3.366;2023-12-28T12:49:39;13.80;99.90
20481;DHT22;10399;50.754;3.366;2023-12-28T12:52:07;13.90;99.90
20481;DHT22;10399;50.754;3.366;2023-12-28T12:54:34;13.90;99.90
20481;DHT22;10399;50.754;3.366;2023-12-28T12:57:02;13.80;99.90
20481;DHT22;10399;50.754;3.366;2023-12-28T12:59:29;13.90;99.90
20481;DHT22;10399;50.754;3.366;2023-12-28T13:01:57;14.10;99.90
20481;DHT22;10399;50.754;3.366;2023-12-28T13:04:24;14.20;99.90
20481;DHT22;10399;50.754;3.366;2023-12-28T13:06:51;14.30;99.90
20481;DHT22;10399;50.754;3.366;2023-12-28T13:09:18;14.50;99.90
20481;DHT22;10399;50.754;3.366;2023-12-28T13:11:47;14.50;99.90
20481;DHT22;10399;50.754;3.366;2023-12-28T13:14:17;14.50;99.90
20481;DHT22;10399;50.754;3.366;2023-12-28T13:16:44;14.20;99.90
20481;DHT22;10399;50.754;3.366;2023-12-28T13:19:11;14.30;99.90
20481;DHT22;10399;50.754;3.366;2023-12-28T13:21:38;14.10;99.90
20481;DHT22;10399;50.754;3.366;2023-12-28T13:24:05;14.10;99.90
20481;DHT22;10399;50.754;3.366;2023-12-28T13:26:32;14.00;99.90
20481;DHT22;10399;50.754;3.366;2023-12-28T13:28:59;13.90;99.90
20481;DHT22;10399;50.754;3.366;2023-12-28T13:31:30;13.80;99.90
20481;DHT22;10399;50.754;3.366;2023-12-28T13:33:57;13.80;99.90
20481;DHT22;10399;50.754;3.366;2023-12-28T13:36:25;13.90;99.90
20481;DHT22;10399;50.754;3.366;2023-12-28T13:38:55;13.90;99.90
20481;DHT22;10399;50.754;3.366;2023-12-28T13:41:22;13.80;99.90
20481;DHT22;10399;50.754;3.366;2023-12-28T13:43:49;13.80;99.90
20481;DHT22;10399;50.754;3.366;2023-12-28T13:46:16;13.80;99.90
20481;DHT22;10399;50.754;3.366;2023-12-28T13:48:43;13.80;99.90
20481;DHT22;10399;50.754;3.366;2023-12-28T13:51:10;13.70;99.90
20481;DHT22;10399;50.754;3.366;2023-12-28T13:53:37;13.70;99.90
20481;DHT22;10399;50.754;3.366;2023-12-28T13:56:08;13.70;99.90
20481;DHT22;10399;50.754;3.366;2023-12-28T13:58:37;13.90;99.90
20481;DHT22;10399;50.754;3.366;2023-12-28T14:01:04;13.80;99.90
20481;DHT22;10399;50.754;3.366;2023-12-28T14:03:32;14.00;99.90
20481;DHT22;10399;50.754;3.366;2023-12-28T14:05:59;13.90;99.90
20481;DHT22;10399;50.754;3.366;2023-12-28T14:08:27;13.90;99.90
20481;DHT22;10399;50.754;3.366;2023-12-28T14:10:54;13.90;99.90
20481;DHT22;10399;50.754;3.366;2023-12-28T14:13:21;14.00;99.90
20481;DHT22;10399;50.754;3.366;2023-12-28T14:15:48;13.90;99.90
20481;DHT22;10399;50.754;3.366;2023-12-28T14:18:15;13.90;99.90
20481;DHT22;10399;50.754;3.366;2023-12-28T14:20:43;13.70;99.90
20481;DHT22;10399;50.754;3.366;2023-12-28T14:23:10;13.80;99.90
20481;DHT22;10399;50.754;3.366;2023-12-28T14:25:39;13.70;99.90
20481;DHT22;10399;50.754;3.366;2023-12-28T14:28:07;13.90;99.90
20481;DHT22;10399;50.754;3.366;2023-12-28T14:30:34;13.80;99.90
20481;DHT22;10399;50.754;3.366;2023-12-28T14:33:01;13.80;99.90
20481;DHT22;10399;50.754;3.366;2023-12-28T14:35:29;13.70;99.90
20481;DHT22;10399;50.754;3.366;2023-12-28T14:37:57;13.60;99.90
20481;DHT22;10399;50.754;3.366;2023-12-28T14:40:24;13.50;99.90
20481;DHT22;10399;50.754;3.366;2023-12-28T14:42:51;13.50;99.90
20481;DHT22;10399;50.754;3.366;2023-12-28T14:45:18;13.50;99.90
20481;DHT22;10399;50.754;3.366;2023-12-28T14:47:45;13.40;99.90
20481;DHT22;10399;50.754;3.366;2023-12-28T14:50:13;13.40;99.90
20481;DHT22;10399;50.754;3.366;2023-12-28T14:52:40;13.50;99.90
20481;DHT22;10399;50.754;3.366;2023-12-28T14:55:09;13.50;99.90
20481;DHT22;10399;50.754;3.366;2023-12-28T14:57:36;13.60;99.90
20481;DHT22;10399;50.754;3.366;2023-12-28T15:00:05;13.40;99.90
20481;DHT22;10399;50.754;3.366;2023-12-28T15:02:32;13.40;99.90
20481;DHT22;10399;50.754;3.366;2023-12-28T15:05:00;13.40;99.90
20481;DHT22;10399;50.754;3.366;2023-12-28T15:07:28;13.40;99.90
20481;DHT22;10399;50.754;3.366;2023-12-28T15:09:55;13.40;99.90
20481;DHT22;10399;50.754;3.366;2023-12-28T15:12:25;13.30;99.90
20481;DHT22;10399;50.754;3.366;2023-12-28T15:14:52;13.20;99.90
20481;DHT22;10399;50.754;3.366;2023-12-28T15:17:20;13.20;99.90
20481;DHT22;10399;50.754;3.366;2023-12-28T15:19:47;13.20;99.90
20481;DHT22;10399;50.754;3.366;2023-12-28T15:22:14;13.10;99.90
20481;DHT22;10399;50.754;3.366;2023-12-28T15:24:41;13.00;99.90
20481;DHT22;10399;50.754;3.366;2023-12-28T15:27:08;12.90;99.90
20481;DHT22;10399;50.754;3.366;2023-12-28T15:29:35;13.10;99.90
20481;DHT22;10399;50.754;3.366;2023-12-28T15:32:02;13.10;99.90
20481;DHT22;10399;50.754;3.366;2023-12-28T15:34:29;13.00;99.90
20481;DHT22;10399;50.754;3.366;2023-12-28T15:36:56;12.90;99.90
20481;DHT22;10399;50.754;3.366;2023-12-28T15:39:23;13.10;99.90
20481;DHT22;10399;50.754;3.366;2023-12-28T15:41:51;12.90;99.90
20481;DHT22;10399;50.754;3.366;2023-12-28T15:44:18;12.70;99.90
20481;DHT22;10399;50.754;3.366;2023-12-28T15:46:45;12.70;99.90
20481;DHT22;10399;50.754;3.366;2023-12-28T15:49:11;12.80;99.90